createdAt,value
2017-09-21T00:02:08.496Z,85.37
2017-09-21T00:04:36.813Z,85.36
2017-09-21T00:07:05.115Z,85.23
2017-09-21T00:09:33.542Z,85.33
2017-09-21T00:12:01.867Z,85.38
2017-09-21T00:14:30.196Z,85.24
2017-09-21T00:16:58.502Z,85.70
2017-09-21T00:19:29.004Z,86.43
2017-09-21T00:21:57.362Z,85.98
2017-09-21T00:24:25.685Z,85.54
2017-09-21T00:26:54.102Z,85.32
2017-09-21T00:29:22.490Z,85.44
2017-09-21T00:31:50.838Z,85.54
2017-09-21T00:34:19.148Z,85.44
2017-09-21T00:36:47.460Z,85.37
2017-09-21T00:39:15.809Z,85.56
2017-09-21T00:41:44.132Z,85.44
2017-09-21T00:44:12.464Z,85.65
2017-09-21T00:46:40.770Z,85.58
2017-09-21T00:49:10.158Z,85.41
2017-09-21T00:51:38.487Z,85.71
2017-09-21T00:54:06.834Z,86.10
2017-09-21T00:56:35.933Z,86.00
2017-09-21T00:59:04.243Z,85.93
2017-09-21T01:01:32.855Z,85.84
2017-09-21T01:04:01.312Z,85.86
2017-09-21T01:06:29.672Z,85.96
2017-09-21T01:08:58.048Z,85.85
2017-09-21T01:11:26.384Z,85.56
2017-09-21T01:13:54.729Z,85.68
2017-09-21T01:16:24.725Z,85.60
2017-09-21T01:18:53.050Z,85.71
2017-09-21T01:21:21.509Z,85.61
2017-09-21T01:23:49.887Z,85.61
2017-09-21T01:26:19.119Z,85.66
2017-09-21T01:28:47.448Z,85.52
2017-09-21T01:31:15.777Z,85.63
2017-09-21T01:33:44.115Z,85.41
2017-09-21T01:36:12.459Z,85.20
2017-09-21T01:38:41.563Z,85.33
2017-09-21T01:41:10.652Z,85.48
2017-09-21T01:43:39.757Z,85.72
2017-09-21T01:46:08.075Z,86.38
2017-09-21T01:48:36.407Z,86.10
2017-09-21T01:51:05.521Z,86.44
2017-09-21T01:53:33.861Z,86.44
2017-09-21T01:56:02.207Z,86.12
2017-09-21T01:58:30.510Z,86.04
2017-09-21T02:00:58.860Z,86.25
2017-09-21T02:03:27.200Z,86.22
2017-09-21T02:05:55.513Z,86.00
2017-09-21T02:08:23.887Z,85.89
2017-09-21T02:10:52.229Z,85.70
2017-09-21T02:13:20.555Z,85.60
2017-09-21T02:15:48.923Z,85.58
2017-09-21T02:18:17.230Z,85.67
2017-09-21T02:20:46.071Z,85.58
2017-09-21T02:23:15.189Z,85.53
2017-09-21T02:25:43.546Z,85.70
2017-09-21T02:28:13.787Z,85.69
2017-09-21T02:30:42.110Z,85.88
2017-09-21T02:33:10.440Z,86.41
2017-09-21T02:35:38.763Z,85.93
2017-09-21T02:38:07.363Z,85.65
2017-09-21T02:40:35.685Z,85.51
2017-09-21T02:43:04.008Z,85.53
2017-09-21T02:45:32.448Z,85.68
2017-09-21T02:48:00.912Z,85.64
2017-09-21T02:50:30.011Z,86.10
2017-09-21T02:52:59.119Z,86.11
2017-09-21T02:55:27.985Z,85.86
2017-09-21T02:57:57.084Z,85.55
2017-09-21T03:00:26.191Z,85.70
2017-09-21T03:02:55.287Z,85.78
2017-09-21T03:05:24.442Z,86.65
2017-09-21T03:07:52.870Z,87.36
2017-09-21T03:10:21.963Z,87.00
2017-09-21T03:12:51.556Z,86.57
2017-09-21T03:15:19.863Z,86.12
2017-09-21T03:17:48.939Z,85.79
2017-09-21T03:20:17.265Z,85.69
2017-09-21T03:22:45.571Z,85.75
2017-09-21T03:25:13.913Z,85.69
2017-09-21T03:27:43.008Z,85.61
2017-09-21T03:30:11.355Z,85.63
2017-09-21T03:32:40.439Z,85.63
2017-09-21T03:35:08.773Z,85.64
2017-09-21T03:37:37.113Z,85.75
2017-09-21T03:40:06.203Z,85.72
2017-09-21T03:42:34.611Z,85.69
2017-09-21T03:45:02.961Z,86.29
2017-09-21T03:47:31.665Z,86.26
2017-09-21T03:49:59.992Z,86.01
2017-09-21T03:52:28.338Z,85.91
2017-09-21T03:54:56.689Z,86.02
2017-09-21T03:57:25.768Z,86.00
2017-09-21T03:59:54.111Z,85.89
2017-09-21T04:02:22.423Z,85.90
2017-09-21T04:04:50.769Z,85.81
2017-09-21T04:07:19.071Z,85.96
2017-09-21T04:09:47.386Z,85.87
2017-09-21T04:12:16.607Z,86.37
2017-09-21T04:14:44.939Z,85.99
2017-09-21T04:17:13.278Z,86.36
2017-09-21T04:19:41.590Z,86.33
2017-09-21T04:22:09.940Z,86.03
2017-09-21T04:24:38.250Z,85.95
2017-09-21T04:27:06.592Z,85.72
2017-09-21T04:29:34.961Z,85.53
2017-09-21T04:32:03.350Z,86.31
2017-09-21T04:34:31.674Z,86.00
2017-09-21T04:36:59.976Z,85.87
2017-09-21T04:39:28.597Z,85.89
2017-09-21T04:41:56.933Z,85.78
2017-09-21T04:44:26.176Z,85.80
2017-09-21T04:46:54.520Z,85.99
2017-09-21T04:49:23.599Z,87.04
2017-09-21T04:51:51.938Z,86.52
2017-09-21T04:54:20.245Z,86.24
2017-09-21T04:56:48.581Z,85.93
2017-09-21T04:59:16.916Z,85.82
2017-09-21T05:01:45.256Z,85.64
2017-09-21T05:04:13.596Z,85.92
2017-09-21T05:06:41.930Z,86.31
2017-09-21T05:09:10.272Z,86.74
2017-09-21T05:11:38.640Z,86.32
2017-09-21T05:14:06.959Z,86.53
2017-09-21T05:16:35.302Z,86.83
2017-09-21T05:19:03.627Z,86.78
2017-09-21T05:21:31.951Z,86.64
2017-09-21T05:24:01.040Z,87.02
2017-09-21T05:26:30.155Z,87.32
2017-09-21T05:28:58.487Z,87.39
2017-09-21T05:31:26.827Z,87.07
2017-09-21T05:33:55.194Z,87.12
2017-09-21T05:36:23.527Z,87.68
2017-09-21T05:38:51.887Z,87.71
2017-09-21T05:41:20.211Z,87.22
2017-09-21T05:43:48.815Z,86.88
2017-09-21T05:46:17.139Z,86.87
2017-09-21T05:48:45.472Z,87.16
2017-09-21T05:51:13.818Z,87.07
2017-09-21T05:53:42.147Z,86.93
2017-09-21T05:56:10.487Z,87.32
2017-09-21T05:58:38.832Z,87.09
2017-09-21T06:01:07.163Z,87.57
2017-09-21T06:03:35.542Z,87.67
2017-09-21T06:06:04.686Z,88.02
2017-09-21T06:08:33.037Z,88.02
2017-09-21T06:11:01.363Z,88.01
2017-09-21T06:13:31.830Z,87.73
2017-09-21T06:16:00.152Z,87.60
2017-09-21T06:18:28.483Z,87.49
2017-09-21T06:20:56.795Z,87.83
2017-09-21T06:23:25.123Z,87.71
2017-09-21T06:25:53.447Z,87.82
2017-09-21T06:28:21.768Z,88.19
2017-09-21T06:30:50.137Z,88.06
2017-09-21T06:33:18.532Z,87.73
2017-09-21T06:35:47.208Z,87.57
2017-09-21T06:38:15.541Z,88.00
2017-09-21T06:40:43.867Z,87.84
2017-09-21T06:43:12.206Z,88.10
2017-09-21T06:45:40.530Z,88.35
2017-09-21T06:48:08.875Z,88.55
2017-09-21T06:50:37.206Z,88.39
2017-09-21T06:53:06.298Z,87.88
2017-09-21T06:55:35.401Z,87.70
2017-09-21T06:58:03.749Z,87.98
2017-09-21T07:00:32.138Z,87.91
2017-09-21T07:03:04.110Z,88.04
2017-09-21T07:05:32.449Z,87.75
2017-09-21T07:08:00.759Z,87.85
2017-09-21T07:10:29.096Z,87.98
2017-09-21T07:12:57.453Z,88.43
2017-09-21T07:15:25.774Z,88.69
2017-09-21T07:17:54.095Z,88.18
2017-09-21T07:20:22.422Z,88.24
2017-09-21T07:22:50.765Z,88.24
2017-09-21T07:25:19.106Z,88.54
2017-09-21T07:27:47.795Z,88.65
2017-09-21T07:30:16.133Z,88.83
2017-09-21T07:32:44.455Z,88.91
2017-09-21T07:35:12.797Z,89.07
2017-09-21T07:37:41.112Z,88.76
2017-09-21T07:40:09.453Z,88.58
2017-09-21T07:42:37.785Z,88.27
2017-09-21T07:45:07.205Z,88.32
2017-09-21T07:47:35.554Z,88.16
2017-09-21T07:50:03.897Z,87.79
2017-09-21T07:52:32.243Z,87.97
2017-09-21T07:55:01.344Z,88.16
2017-09-21T07:57:29.688Z,87.98
2017-09-21T07:59:58.038Z,88.03
2017-09-21T08:02:26.869Z,88.05
2017-09-21T08:04:55.204Z,87.92
2017-09-21T08:07:23.517Z,87.85
2017-09-21T08:09:51.875Z,87.73
2017-09-21T08:12:20.183Z,87.61
2017-09-21T08:14:48.524Z,87.87
2017-09-21T08:17:16.857Z,87.86
2017-09-21T08:19:45.205Z,87.94
2017-09-21T08:22:13.520Z,87.95
2017-09-21T08:24:41.855Z,87.80
2017-09-21T08:27:10.183Z,87.83
2017-09-21T08:29:40.406Z,87.86
2017-09-21T08:32:08.758Z,87.97
2017-09-21T08:34:37.088Z,88.02
2017-09-21T08:37:05.689Z,87.94
2017-09-21T08:39:34.046Z,87.80
2017-09-21T08:42:02.436Z,87.72
2017-09-21T08:44:30.766Z,87.64
2017-09-21T08:46:59.090Z,87.50
2017-09-21T08:49:27.443Z,87.22
2017-09-21T08:51:56.540Z,87.14
2017-09-21T08:54:25.151Z,87.17
2017-09-21T08:56:53.480Z,86.98
2017-09-21T08:59:21.818Z,87.13
2017-09-21T09:01:50.163Z,87.03
2017-09-21T09:04:18.500Z,86.99
2017-09-21T09:06:46.850Z,87.10
2017-09-21T09:09:15.181Z,87.04
2017-09-21T09:11:44.415Z,87.00
2017-09-21T09:14:12.747Z,86.87
2017-09-21T09:16:41.107Z,86.60
2017-09-21T09:19:09.452Z,86.53
2017-09-21T09:21:37.784Z,86.06
2017-09-21T09:24:06.128Z,85.87
2017-09-21T09:26:34.447Z,85.73
2017-09-21T09:29:02.767Z,86.09
2017-09-21T09:31:31.110Z,86.05
2017-09-21T09:34:00.203Z,85.82
2017-09-21T09:36:28.543Z,85.49
2017-09-21T09:38:56.873Z,85.39
2017-09-21T09:41:26.013Z,85.30
2017-09-21T09:43:54.361Z,84.75
2017-09-21T09:46:23.439Z,83.96
2017-09-21T09:48:51.781Z,83.09
2017-09-21T09:51:20.951Z,82.39
2017-09-21T09:53:49.284Z,81.89
2017-09-21T09:56:17.615Z,81.34
2017-09-21T09:58:46.015Z,81.60
2017-09-21T10:01:14.364Z,81.51
2017-09-21T10:03:42.701Z,80.96
2017-09-21T10:06:11.051Z,80.68
2017-09-21T10:08:39.371Z,80.28
2017-09-21T10:11:07.721Z,80.68
2017-09-21T10:13:36.060Z,79.43
2017-09-21T10:16:04.426Z,78.24
2017-09-21T10:18:32.789Z,77.76
2017-09-21T10:21:01.888Z,78.13
2017-09-21T10:23:30.244Z,78.94
2017-09-21T10:25:58.565Z,78.83
2017-09-21T10:28:27.698Z,78.65
2017-09-21T10:30:56.033Z,78.59
2017-09-21T10:33:24.393Z,77.99
2017-09-21T10:35:52.740Z,76.22
2017-09-21T10:38:21.058Z,75.25
2017-09-21T10:40:49.384Z,73.64
2017-09-21T10:43:17.700Z,74.02
2017-09-21T10:45:46.038Z,72.79
2017-09-21T10:48:14.344Z,71.62
2017-09-21T10:50:42.662Z,72.67
2017-09-21T10:53:11.772Z,70.32
2017-09-21T10:55:40.093Z,69.85
2017-09-21T10:58:08.442Z,69.93
2017-09-21T11:00:36.777Z,69.49
2017-09-21T11:03:05.108Z,69.37
2017-09-21T11:05:33.505Z,68.95
2017-09-21T11:08:01.816Z,67.30
2017-09-21T11:10:30.177Z,67.88
2017-09-21T11:12:59.252Z,65.86
2017-09-21T11:15:28.095Z,65.86
2017-09-21T11:17:56.420Z,65.25
2017-09-21T11:20:24.743Z,65.62
2017-09-21T11:22:53.097Z,64.79
2017-09-21T11:25:21.421Z,63.74
2017-09-21T11:27:50.789Z,63.86
2017-09-21T11:30:19.122Z,62.90
2017-09-21T11:32:47.594Z,61.38
2017-09-21T11:35:15.993Z,60.70
2017-09-21T11:37:44.317Z,63.44
2017-09-21T11:40:12.664Z,62.78
2017-09-21T11:42:41.006Z,61.47
2017-09-21T11:45:09.380Z,60.69
2017-09-21T11:47:37.725Z,62.84
2017-09-21T11:50:06.050Z,61.14
2017-09-21T11:52:34.395Z,59.30
2017-09-21T11:55:02.732Z,58.03
2017-09-21T11:57:31.993Z,59.45
2017-09-21T12:00:01.171Z,59.25
2017-09-21T12:02:30.071Z,59.00
2017-09-21T12:04:58.403Z,60.24
2017-09-21T12:07:26.737Z,58.07
2017-09-21T12:09:55.848Z,54.06
2017-09-21T12:12:24.178Z,53.86
2017-09-21T12:14:52.544Z,54.13
2017-09-21T12:17:20.874Z,56.54
2017-09-21T12:19:49.982Z,56.97
2017-09-21T12:22:19.102Z,55.56
2017-09-21T12:24:47.433Z,55.57
2017-09-21T12:27:15.802Z,57.77
2017-09-21T12:29:44.137Z,59.85
2017-09-21T12:32:12.739Z,56.94
2017-09-21T12:34:41.072Z,57.05
2017-09-21T12:37:10.186Z,57.61
2017-09-21T12:39:38.520Z,55.83
2017-09-21T12:42:06.837Z,57.49
2017-09-21T12:44:35.941Z,58.03
2017-09-21T12:47:04.267Z,56.02
2017-09-21T12:49:32.870Z,56.49
2017-09-21T12:52:01.211Z,57.58
2017-09-21T12:54:29.543Z,56.84
2017-09-21T12:56:57.892Z,57.01
2017-09-21T12:59:26.216Z,57.31
2017-09-21T13:01:54.640Z,59.59
2017-09-21T13:04:22.978Z,56.84
2017-09-21T13:06:51.326Z,56.48
2017-09-21T13:09:19.678Z,55.88
2017-09-21T13:11:48.048Z,56.15
2017-09-21T13:14:16.402Z,58.55
2017-09-21T13:16:44.769Z,56.02
2017-09-21T13:19:13.112Z,56.01
2017-09-21T13:21:41.445Z,56.67
2017-09-21T13:24:09.834Z,56.81
2017-09-21T13:26:38.186Z,57.61
2017-09-21T13:29:06.527Z,60.24
2017-09-21T13:31:34.876Z,59.16
2017-09-21T13:34:03.210Z,58.72
2017-09-21T13:36:31.554Z,55.71
2017-09-21T13:38:59.958Z,55.64
2017-09-21T13:41:28.319Z,56.97
2017-09-21T13:43:56.670Z,57.76
2017-09-21T13:46:25.002Z,58.20
2017-09-21T13:48:53.337Z,56.91
2017-09-21T13:51:22.489Z,56.34
2017-09-21T13:53:50.831Z,56.64
2017-09-21T13:56:19.147Z,57.75
2017-09-21T13:58:48.270Z,56.29
2017-09-21T14:01:16.629Z,56.38
2017-09-21T14:03:44.985Z,57.64
2017-09-21T14:06:13.917Z,56.57
2017-09-21T14:08:42.232Z,56.98
2017-09-21T14:11:10.575Z,57.97
2017-09-21T14:13:38.946Z,54.29
2017-09-21T14:16:07.527Z,54.38
2017-09-21T14:18:36.620Z,55.36
2017-09-21T14:21:04.941Z,56.59
2017-09-21T14:23:33.289Z,54.41
2017-09-21T14:26:01.617Z,55.37
2017-09-21T14:28:32.171Z,54.23
2017-09-21T14:31:01.432Z,54.34
2017-09-21T14:33:29.879Z,53.57
2017-09-21T14:35:58.293Z,53.15
2017-09-21T14:38:30.469Z,50.10
2017-09-21T14:40:59.254Z,50.34
2017-09-21T14:43:28.519Z,51.72
2017-09-21T14:45:57.940Z,52.02
2017-09-21T14:48:28.203Z,51.65
2017-09-21T14:50:57.368Z,51.22
2017-09-21T14:53:26.160Z,51.57
2017-09-21T14:55:59.081Z,50.87
2017-09-21T14:58:27.426Z,48.76
2017-09-21T15:00:56.706Z,50.28
2017-09-21T15:03:34.177Z,51.41
2017-09-21T15:06:11.942Z,50.59
2017-09-21T15:08:51.626Z,51.29
2017-09-21T15:11:27.926Z,51.26
2017-09-21T15:14:06.317Z,51.00
2017-09-21T15:16:41.617Z,50.04
2017-09-21T15:19:10.075Z,49.94
2017-09-21T15:21:39.355Z,49.54
2017-09-21T15:24:07.841Z,49.34
2017-09-21T15:26:36.207Z,48.17
2017-09-21T15:29:06.329Z,50.73
2017-09-21T15:31:35.656Z,50.55
2017-09-21T15:34:04.093Z,52.00
2017-09-21T15:36:33.657Z,51.98
2017-09-21T15:39:01.988Z,52.24
2017-09-21T15:41:33.552Z,53.29
2017-09-21T15:44:01.974Z,52.72
2017-09-21T15:46:32.097Z,54.35
2017-09-21T15:49:00.453Z,54.03
2017-09-21T15:51:31.029Z,54.35
2017-09-21T15:53:59.460Z,56.24
2017-09-21T15:56:27.810Z,55.45
2017-09-21T15:58:56.800Z,56.36
2017-09-21T16:01:26.365Z,57.15
2017-09-21T16:03:57.299Z,56.16
2017-09-21T16:06:29.867Z,57.65
2017-09-21T16:08:58.648Z,57.61
2017-09-21T16:11:27.026Z,58.01
2017-09-21T16:13:55.508Z,60.89
2017-09-21T16:16:26.142Z,60.90
2017-09-21T16:18:54.477Z,62.21
2017-09-21T16:21:23.327Z,62.33
2017-09-21T16:23:52.039Z,62.89
2017-09-21T16:26:24.193Z,63.31
2017-09-21T16:28:56.159Z,64.46
2017-09-21T16:31:25.762Z,64.53
2017-09-21T16:33:54.581Z,65.74
2017-09-21T16:36:24.966Z,66.39
2017-09-21T16:39:01.294Z,66.55
2017-09-21T16:41:32.718Z,68.02
2017-09-21T16:44:07.710Z,68.09
2017-09-21T16:46:36.343Z,68.53
2017-09-21T16:49:15.781Z,69.28
2017-09-21T16:51:44.178Z,69.58
2017-09-21T16:54:14.578Z,70.00
2017-09-21T16:56:42.985Z,70.06
2017-09-21T16:59:24.735Z,70.59
2017-09-21T17:02:01.260Z,70.91
2017-09-21T17:04:36.178Z,72.00
2017-09-21T17:07:05.513Z,72.26
2017-09-21T17:09:37.837Z,72.81
2017-09-21T17:12:07.097Z,72.85
2017-09-21T17:14:49.512Z,73.46
2017-09-21T17:17:27.485Z,73.48
2017-09-21T17:20:06.460Z,74.28
2017-09-21T17:22:46.967Z,75.06
2017-09-21T17:25:25.774Z,75.12
2017-09-21T17:27:54.690Z,75.04
2017-09-21T17:30:35.753Z,75.58
2017-09-21T17:33:05.806Z,75.35
2017-09-21T17:35:34.173Z,75.26
2017-09-21T17:38:02.495Z,75.55
2017-09-21T17:40:30.847Z,76.00
2017-09-21T17:42:59.963Z,76.49
2017-09-21T17:45:28.586Z,76.59
2017-09-21T17:47:56.916Z,77.54
2017-09-21T17:50:25.244Z,77.55
2017-09-21T17:52:54.816Z,77.67
2017-09-21T17:55:24.056Z,77.99
2017-09-21T17:57:52.487Z,77.95
2017-09-21T18:00:20.949Z,78.42
2017-09-21T18:02:51.089Z,78.95
2017-09-21T18:05:19.467Z,78.78
2017-09-21T18:07:47.835Z,78.61
2017-09-21T18:10:17.501Z,78.74
2017-09-21T18:12:45.839Z,79.20
2017-09-21T18:15:16.393Z,79.18
2017-09-21T18:17:44.754Z,79.08
2017-09-21T18:20:13.122Z,79.01
2017-09-21T18:22:44.104Z,79.52
2017-09-21T18:25:13.596Z,79.83
2017-09-21T18:27:41.994Z,80.08
2017-09-21T18:30:11.268Z,80.00
2017-09-21T18:32:41.760Z,80.40
2017-09-21T18:35:12.012Z,80.54
2017-09-21T18:37:41.323Z,80.68
2017-09-21T18:40:11.839Z,80.61
2017-09-21T18:42:40.234Z,80.99
2017-09-21T18:45:10.731Z,80.81
2017-09-21T18:47:40.491Z,81.65
2017-09-21T18:50:08.837Z,81.84
2017-09-21T18:52:40.887Z,81.24
2017-09-21T18:55:10.897Z,81.87
2017-09-21T18:57:40.315Z,81.88
2017-09-21T19:00:09.448Z,82.31
2017-09-21T19:02:45.649Z,82.86
2017-09-21T19:05:14.111Z,82.38
2017-09-21T19:07:42.444Z,82.11
2017-09-21T19:10:10.830Z,82.42
2017-09-21T19:12:39.211Z,82.64
2017-09-21T19:15:14.608Z,82.61
2017-09-21T19:17:43.985Z,83.01
2017-09-21T19:20:13.249Z,82.73
2017-09-21T19:22:42.581Z,83.04
2017-09-21T19:25:11.888Z,83.08
2017-09-21T19:27:42.385Z,82.89
2017-09-21T19:30:10.777Z,82.58
2017-09-21T19:32:48.944Z,82.69
2017-09-21T19:35:23.782Z,83.54
2017-09-21T19:37:52.190Z,83.65
2017-09-21T19:40:22.396Z,83.50
2017-09-21T19:42:53.571Z,83.95
2017-09-21T19:45:23.825Z,83.86
2017-09-21T19:47:52.186Z,83.66
2017-09-21T19:50:22.687Z,83.42
2017-09-21T19:52:56.936Z,83.67
2017-09-21T19:55:25.355Z,83.91
2017-09-21T19:57:53.696Z,83.95
2017-09-21T20:00:22.055Z,83.88
2017-09-21T20:03:01.446Z,84.00
2017-09-21T20:05:45.628Z,84.09
2017-09-21T20:08:14.838Z,83.77
2017-09-21T20:10:45.454Z,84.51
2017-09-21T20:13:16.525Z,84.25
2017-09-21T20:15:44.881Z,84.17
2017-09-21T20:18:15.146Z,84.29
2017-09-21T20:20:44.413Z,84.49
2017-09-21T20:23:15.601Z,84.29
2017-09-21T20:25:43.940Z,84.58
2017-09-21T20:28:18.867Z,84.41
2017-09-21T20:30:48.974Z,84.36
2017-09-21T20:33:22.611Z,84.75
2017-09-21T20:35:51.892Z,84.72
2017-09-21T20:38:22.142Z,84.97
2017-09-21T20:40:51.431Z,84.88
2017-09-21T20:43:19.801Z,84.85
2017-09-21T20:45:49.135Z,85.49
2017-09-21T20:48:19.625Z,85.15
2017-09-21T20:50:55.368Z,85.09
2017-09-21T20:53:23.758Z,85.79
2017-09-21T20:55:56.784Z,85.75
2017-09-21T20:58:25.140Z,85.45
2017-09-21T21:00:58.237Z,85.40
2017-09-21T21:03:31.096Z,84.90
2017-09-21T21:06:00.529Z,85.06
2017-09-21T21:08:30.941Z,85.42
2017-09-21T21:11:02.498Z,85.09
2017-09-21T21:13:33.540Z,85.04
2017-09-21T21:16:09.268Z,84.98
2017-09-21T21:18:37.670Z,85.32
2017-09-21T21:21:13.977Z,85.35
2017-09-21T21:23:44.253Z,85.36
2017-09-21T21:26:14.906Z,85.06
2017-09-21T21:28:44.402Z,84.97
2017-09-21T21:31:14.642Z,85.66
2017-09-21T21:33:43.957Z,85.32
2017-09-21T21:36:15.671Z,85.75
2017-09-21T21:38:45.929Z,85.66
2017-09-21T21:41:14.290Z,85.85
2017-09-21T21:43:44.925Z,85.60
2017-09-21T21:46:14.125Z,85.33
2017-09-21T21:48:43.415Z,85.30
2017-09-21T21:51:14.593Z,85.39
2017-09-21T21:53:42.930Z,86.51
2017-09-21T21:56:12.261Z,85.92
2017-09-21T21:58:40.627Z,85.63
2017-09-21T22:01:09.965Z,85.35
2017-09-21T22:03:40.468Z,86.06
2017-09-21T22:06:17.431Z,85.85
2017-09-21T22:08:47.671Z,86.06
2017-09-21T22:11:20.651Z,85.83
2017-09-21T22:13:54.564Z,85.76
2017-09-21T22:16:23.882Z,85.42
2017-09-21T22:18:57.247Z,85.41
2017-09-21T22:21:25.571Z,85.63
2017-09-21T22:23:54.815Z,85.54
2017-09-21T22:26:27.519Z,85.58
2017-09-21T22:29:15.597Z,85.57
2017-09-21T22:31:45.799Z,85.43
2017-09-21T22:34:15.083Z,85.88
2017-09-21T22:36:48.998Z,86.18
2017-09-21T22:39:21.381Z,85.80
2017-09-21T22:41:55.566Z,85.60
2017-09-21T22:44:23.969Z,85.95
2017-09-21T22:46:56.744Z,86.11
2017-09-21T22:49:25.082Z,86.00
2017-09-21T22:51:54.329Z,85.71
2017-09-21T22:54:23.638Z,85.60
2017-09-21T22:57:10.042Z,85.50
2017-09-21T22:59:38.545Z,86.03
2017-09-21T23:02:07.817Z,86.12
2017-09-21T23:04:37.507Z,86.04
2017-09-21T23:07:05.840Z,86.01
2017-09-21T23:09:34.166Z,86.16
2017-09-21T23:12:03.601Z,86.31
2017-09-21T23:14:31.918Z,86.29
2017-09-21T23:17:01.208Z,86.15
2017-09-21T23:19:32.919Z,86.57
2017-09-21T23:22:04.437Z,86.92
2017-09-21T23:24:32.750Z,86.72
2017-09-21T23:27:02.965Z,87.03
2017-09-21T23:29:31.376Z,86.45
2017-09-21T23:31:59.727Z,86.19
2017-09-21T23:34:28.133Z,86.07
2017-09-21T23:37:00.473Z,86.00
2017-09-21T23:39:29.285Z,86.21
2017-09-21T23:41:58.536Z,86.38
2017-09-21T23:44:32.785Z,86.92
2017-09-21T23:47:01.120Z,86.36
2017-09-21T23:49:34.722Z,85.99
2017-09-21T23:52:03.056Z,86.54
2017-09-21T23:54:34.225Z,86.96
2017-09-21T23:57:02.637Z,86.86
2017-09-21T23:59:31.885Z,86.41
